sensor_id;sensor_type;location;lat;lon;timestamp;P1;durP1;ratioP1;P2;durP2;ratioP2
69185;SDS011;56298;49.246;9.410;2022-08-21T00:00:59;9.87;;;3.57;;
69185;SDS011;56298;49.246;9.410;2022-08-21T00:03:28;6.10;;;3.53;;
69185;SDS011;56298;49.246;9.410;2022-08-21T00:05:53;6.65;;;3.72;;
69185;SDS011;56298;49.246;9.410;2022-08-21T00:08:19;6.20;;;3.30;;
69185;SDS011;56298;49.246;9.410;2022-08-21T00:10:46;8.30;;;3.45;;
69185;SDS011;56298;49.246;9.410;2022-08-21T00:13:11;7.35;;;3.33;;
69185;SDS011;56298;49.246;9.410;2022-08-21T00:15:38;7.07;;;3.40;;
69185;SDS011;56298;49.246;9.410;2022-08-21T00:18:05;6.22;;;3.10;;
69185;SDS011;56298;49.246;9.410;2022-08-21T00:20:34;7.03;;;3.38;;
69185;SDS011;56298;49.246;9.410;2022-08-21T00:23:00;8.30;;;3.50;;
69185;SDS011;56298;49.246;9.410;2022-08-21T00:25:26;7.23;;;3.40;;
69185;SDS011;56298;49.246;9.410;2022-08-21T00:27:52;6.80;;;3.33;;
69185;SDS011;56298;49.246;9.410;2022-08-21T00:30:18;7.90;;;3.65;;
69185;SDS011;56298;49.246;9.410;2022-08-21T00:32:45;9.80;;;3.33;;
69185;SDS011;56298;49.246;9.410;2022-08-21T00:35:15;6.03;;;3.20;;
69185;SDS011;56298;49.246;9.410;2022-08-21T00:37:42;6.75;;;3.20;;
69185;SDS011;56298;49.246;9.410;2022-08-21T00:40:09;5.97;;;3.30;;
69185;SDS011;56298;49.246;9.410;2022-08-21T00:42:37;7.13;;;3.53;;
69185;SDS011;56298;49.246;9.410;2022-08-21T00:45:08;8.55;;;3.28;;
69185;SDS011;56298;49.246;9.410;2022-08-21T00:47:38;8.00;;;3.60;;
69185;SDS011;56298;49.246;9.410;2022-08-21T00:50:05;6.67;;;3.50;;
69185;SDS011;56298;49.246;9.410;2022-08-21T00:52:32;6.13;;;3.00;;
69185;SDS011;56298;49.246;9.410;2022-08-21T00:54:59;9.30;;;3.80;;
69185;SDS011;56298;49.246;9.410;2022-08-21T00:57:29;7.95;;;3.50;;
69185;SDS011;56298;49.246;9.410;2022-08-21T00:59:58;8.73;;;3.85;;
69185;SDS011;56298;49.246;9.410;2022-08-21T01:02:25;9.20;;;3.70;;
69185;SDS011;56298;49.246;9.410;2022-08-21T01:04:51;6.88;;;3.85;;
69185;SDS011;56298;49.246;9.410;2022-08-21T01:07:16;8.00;;;3.37;;
69185;SDS011;56298;49.246;9.410;2022-08-21T01:09:43;7.78;;;3.70;;
69185;SDS011;56298;49.246;9.410;2022-08-21T01:12:10;7.60;;;3.70;;
69185;SDS011;56298;49.246;9.410;2022-08-21T01:14:36;6.72;;;3.30;;
69185;SDS011;56298;49.246;9.410;2022-08-21T01:17:03;8.73;;;3.77;;
69185;SDS011;56298;49.246;9.410;2022-08-21T01:19:29;7.95;;;3.83;;
69185;SDS011;56298;49.246;9.410;2022-08-21T01:21:55;7.45;;;3.63;;
69185;SDS011;56298;49.246;9.410;2022-08-21T01:24:21;8.73;;;3.93;;
69185;SDS011;56298;49.246;9.410;2022-08-21T01:26:47;8.30;;;3.67;;
69185;SDS011;56298;49.246;9.410;2022-08-21T01:29:20;8.10;;;3.92;;
69185;SDS011;56298;49.246;9.410;2022-08-21T01:31:53;6.68;;;3.88;;
69185;SDS011;56298;49.246;9.410;2022-08-21T01:34:18;7.55;;;3.80;;
69185;SDS011;56298;49.246;9.410;2022-08-21T01:36:44;8.27;;;3.87;;
69185;SDS011;56298;49.246;9.410;2022-08-21T01:39:10;7.18;;;3.90;;
69185;SDS011;56298;49.246;9.410;2022-08-21T01:41:35;7.07;;;4.07;;
69185;SDS011;56298;49.246;9.410;2022-08-21T01:44:01;6.50;;;3.83;;
69185;SDS011;56298;49.246;9.410;2022-08-21T01:46:26;7.20;;;3.80;;
69185;SDS011;56298;49.246;9.410;2022-08-21T01:48:52;16.83;;;4.30;;
69185;SDS011;56298;49.246;9.410;2022-08-21T01:51:17;8.73;;;4.20;;
69185;SDS011;56298;49.246;9.410;2022-08-21T01:53:42;15.80;;;4.17;;
69185;SDS011;56298;49.246;9.410;2022-08-21T01:56:09;16.37;;;4.27;;
69185;SDS011;56298;49.246;9.410;2022-08-21T01:58:36;36.80;;;4.45;;
69185;SDS011;56298;49.246;9.410;2022-08-21T02:01:02;15.23;;;3.77;;
69185;SDS011;56298;49.246;9.410;2022-08-21T02:03:28;20.77;;;3.83;;
69185;SDS011;56298;49.246;9.410;2022-08-21T02:05:54;9.93;;;3.10;;
69185;SDS011;56298;49.246;9.410;2022-08-21T02:08:19;6.60;;;3.00;;
69185;SDS011;56298;49.246;9.410;2022-08-21T02:10:47;12.25;;;3.72;;
69185;SDS011;56298;49.246;9.410;2022-08-21T02:13:13;12.53;;;3.90;;
69185;SDS011;56298;49.246;9.410;2022-08-21T02:15:38;9.90;;;4.57;;
69185;SDS011;56298;49.246;9.410;2022-08-21T02:18:04;7.27;;;4.60;;
69185;SDS011;56298;49.246;9.410;2022-08-21T02:20:35;9.60;;;4.37;;
69185;SDS011;56298;49.246;9.410;2022-08-21T02:23:03;7.90;;;4.30;;
69185;SDS011;56298;49.246;9.410;2022-08-21T02:25:29;8.68;;;3.95;;
69185;SDS011;56298;49.246;9.410;2022-08-21T02:27:55;6.77;;;3.70;;
69185;SDS011;56298;49.246;9.410;2022-08-21T02:30:26;7.32;;;3.78;;
69185;SDS011;56298;49.246;9.410;2022-08-21T02:32:56;7.72;;;3.63;;
69185;SDS011;56298;49.246;9.410;2022-08-21T02:35:22;5.72;;;3.38;;
69185;SDS011;56298;49.246;9.410;2022-08-21T02:37:49;5.70;;;3.50;;
69185;SDS011;56298;49.246;9.410;2022-08-21T02:40:17;5.80;;;3.50;;
69185;SDS011;56298;49.246;9.410;2022-08-21T02:42:44;7.00;;;3.78;;
69185;SDS011;56298;49.246;9.410;2022-08-21T02:45:10;6.93;;;3.50;;
69185;SDS011;56298;49.246;9.410;2022-08-21T02:47:36;6.22;;;3.78;;
69185;SDS011;56298;49.246;9.410;2022-08-21T02:50:02;5.90;;;3.50;;
69185;SDS011;56298;49.246;9.410;2022-08-21T02:52:28;5.87;;;3.40;;
69185;SDS011;56298;49.246;9.410;2022-08-21T02:54:53;6.67;;;4.07;;
69185;SDS011;56298;49.246;9.410;2022-08-21T02:57:18;7.13;;;4.20;;
69185;SDS011;56298;49.246;9.410;2022-08-21T02:59:43;9.03;;;4.10;;
69185;SDS011;56298;49.246;9.410;2022-08-21T03:02:09;9.37;;;3.70;;
69185;SDS011;56298;49.246;9.410;2022-08-21T03:04:35;7.90;;;3.70;;
69185;SDS011;56298;49.246;9.410;2022-08-21T03:07:01;7.38;;;4.00;;
69185;SDS011;56298;49.246;9.410;2022-08-21T03:09:26;10.90;;;3.50;;
69185;SDS011;56298;49.246;9.410;2022-08-21T03:11:51;9.33;;;3.63;;
69185;SDS011;56298;49.246;9.410;2022-08-21T03:14:18;11.07;;;3.78;;
69185;SDS011;56298;49.246;9.410;2022-08-21T03:16:43;9.13;;;3.80;;
69185;SDS011;56298;49.246;9.410;2022-08-21T03:19:09;12.90;;;3.83;;
69185;SDS011;56298;49.246;9.410;2022-08-21T03:21:34;14.80;;;4.57;;
69185;SDS011;56298;49.246;9.410;2022-08-21T03:24:00;12.47;;;4.97;;
69185;SDS011;56298;49.246;9.410;2022-08-21T03:26:25;11.07;;;5.00;;
69185;SDS011;56298;49.246;9.410;2022-08-21T03:28:50;11.40;;;4.70;;
69185;SDS011;56298;49.246;9.410;2022-08-21T03:31:16;9.60;;;5.03;;
69185;SDS011;56298;49.246;9.410;2022-08-21T03:33:42;8.45;;;5.07;;
69185;SDS011;56298;49.246;9.410;2022-08-21T03:36:08;7.63;;;4.40;;
69185;SDS011;56298;49.246;9.410;2022-08-21T03:38:35;6.70;;;3.85;;
69185;SDS011;56298;49.246;9.410;2022-08-21T03:41:01;6.45;;;3.83;;
69185;SDS011;56298;49.246;9.410;2022-08-21T03:43:27;9.27;;;4.20;;
69185;SDS011;56298;49.246;9.410;2022-08-21T03:45:53;9.47;;;4.10;;
69185;SDS011;56298;49.246;9.410;2022-08-21T03:48:19;11.35;;;4.38;;
69185;SDS011;56298;49.246;9.410;2022-08-21T03:50:44;20.05;;;4.63;;
69185;SDS011;56298;49.246;9.410;2022-08-21T03:53:12;16.90;;;5.18;;
69185;SDS011;56298;49.246;9.410;2022-08-21T03:55:39;14.52;;;5.00;;
69185;SDS011;56298;49.246;9.410;2022-08-21T03:58:04;13.55;;;5.05;;
69185;SDS011;56298;49.246;9.410;2022-08-21T04:00:30;17.23;;;5.55;;
69185;SDS011;56298;49.246;9.410;2022-08-21T04:02:56;9.25;;;4.75;;
69185;SDS011;56298;49.246;9.410;2022-08-21T04:05:21;9.10;;;3.87;;
69185;SDS011;56298;49.246;9.410;2022-08-21T04:07:59;10.77;;;4.10;;
69185;SDS011;56298;49.246;9.410;2022-08-21T04:10:27;13.57;;;4.43;;
69185;SDS011;56298;49.246;9.410;2022-08-21T04:12:54;9.57;;;4.57;;
69185;SDS011;56298;49.246;9.410;2022-08-21T04:15:21;12.35;;;5.03;;
69185;SDS011;56298;49.246;9.410;2022-08-21T04:17:47;13.63;;;5.03;;
69185;SDS011;56298;49.246;9.410;2022-08-21T04:20:13;12.97;;;5.03;;
69185;SDS011;56298;49.246;9.410;2022-08-21T04:22:39;15.00;;;4.70;;
69185;SDS011;56298;49.246;9.410;2022-08-21T04:25:05;15.20;;;5.20;;
69185;SDS011;56298;49.246;9.410;2022-08-21T04:27:30;22.20;;;5.68;;
69185;SDS011;56298;49.246;9.410;2022-08-21T04:29:56;10.33;;;4.70;;
69185;SDS011;56298;49.246;9.410;2022-08-21T04:32:22;17.63;;;5.23;;
69185;SDS011;56298;49.246;9.410;2022-08-21T04:34:48;11.17;;;4.57;;
69185;SDS011;56298;49.246;9.410;2022-08-21T04:37:13;11.50;;;4.70;;
69185;SDS011;56298;49.246;9.410;2022-08-21T04:39:40;18.40;;;4.85;;
69185;SDS011;56298;49.246;9.410;2022-08-21T04:42:05;20.67;;;4.50;;
69185;SDS011;56298;49.246;9.410;2022-08-21T04:44:31;9.97;;;4.70;;
69185;SDS011;56298;49.246;9.410;2022-08-21T04:46:57;8.83;;;4.80;;
69185;SDS011;56298;49.246;9.410;2022-08-21T04:49:22;13.38;;;4.68;;
69185;SDS011;56298;49.246;9.410;2022-08-21T04:51:48;11.10;;;4.70;;
69185;SDS011;56298;49.246;9.410;2022-08-21T04:54:15;15.87;;;4.40;;
69185;SDS011;56298;49.246;9.410;2022-08-21T04:56:49;14.77;;;4.80;;
69185;SDS011;56298;49.246;9.410;2022-08-21T04:59:30;17.92;;;5.00;;
69185;SDS011;56298;49.246;9.410;2022-08-21T05:01:57;13.88;;;4.90;;
69185;SDS011;56298;49.246;9.410;2022-08-21T05:04:26;9.63;;;4.68;;
69185;SDS011;56298;49.246;9.410;2022-08-21T05:06:55;44.60;;;5.70;;
69185;SDS011;56298;49.246;9.410;2022-08-21T05:09:24;10.35;;;5.07;;
69185;SDS011;56298;49.246;9.410;2022-08-21T05:11:50;25.70;;;5.20;;
69185;SDS011;56298;49.246;9.410;2022-08-21T05:14:17;16.08;;;4.55;;
69185;SDS011;56298;49.246;9.410;2022-08-21T05:16:44;8.55;;;4.20;;
69185;SDS011;56298;49.246;9.410;2022-08-21T05:19:10;9.02;;;3.72;;
69185;SDS011;56298;49.246;9.410;2022-08-21T05:21:38;11.35;;;4.00;;
69185;SDS011;56298;49.246;9.410;2022-08-21T05:24:05;6.72;;;4.05;;
69185;SDS011;56298;49.246;9.410;2022-08-21T05:26:31;7.45;;;3.80;;
69185;SDS011;56298;49.246;9.410;2022-08-21T05:28:56;8.13;;;4.03;;
69185;SDS011;56298;49.246;9.410;2022-08-21T05:31:22;8.32;;;3.97;;
69185;SDS011;56298;49.246;9.410;2022-08-21T05:33:47;11.70;;;3.77;;
69185;SDS011;56298;49.246;9.410;2022-08-21T05:36:13;8.03;;;3.60;;
69185;SDS011;56298;49.246;9.410;2022-08-21T05:38:38;6.37;;;3.50;;
69185;SDS011;56298;49.246;9.410;2022-08-21T05:41:03;15.73;;;3.57;;
69185;SDS011;56298;49.246;9.410;2022-08-21T05:43:29;11.25;;;3.70;;
69185;SDS011;56298;49.246;9.410;2022-08-21T05:45:54;7.63;;;3.30;;
69185;SDS011;56298;49.246;9.410;2022-08-21T05:48:20;6.10;;;3.40;;
69185;SDS011;56298;49.246;9.410;2022-08-21T05:50:48;6.75;;;3.58;;
69185;SDS011;56298;49.246;9.410;2022-08-21T05:53:15;5.87;;;3.23;;
69185;SDS011;56298;49.246;9.410;2022-08-21T05:55:43;5.60;;;3.20;;
69185;SDS011;56298;49.246;9.410;2022-08-21T05:58:09;11.27;;;3.40;;
69185;SDS011;56298;49.246;9.410;2022-08-21T06:00:36;6.65;;;3.00;;
69185;SDS011;56298;49.246;9.410;2022-08-21T06:03:02;5.77;;;3.23;;
69185;SDS011;56298;49.246;9.410;2022-08-21T06:05:28;4.90;;;2.80;;
69185;SDS011;56298;49.246;9.410;2022-08-21T06:07:54;5.05;;;2.92;;
69185;SDS011;56298;49.246;9.410;2022-08-21T06:10:19;5.00;;;3.10;;
69185;SDS011;56298;49.246;9.410;2022-08-21T06:12:44;6.68;;;2.90;;
69185;SDS011;56298;49.246;9.410;2022-08-21T06:15:10;5.32;;;2.80;;
69185;SDS011;56298;49.246;9.410;2022-08-21T06:17:36;4.57;;;2.70;;
69185;SDS011;56298;49.246;9.410;2022-08-21T06:20:01;5.30;;;2.77;;
69185;SDS011;56298;49.246;9.410;2022-08-21T06:22:28;5.05;;;2.80;;
69185;SDS011;56298;49.246;9.410;2022-08-21T06:24:53;5.27;;;2.60;;
69185;SDS011;56298;49.246;9.410;2022-08-21T06:27:19;5.47;;;2.70;;
69185;SDS011;56298;49.246;9.410;2022-08-21T06:29:44;5.33;;;2.40;;
69185;SDS011;56298;49.246;9.410;2022-08-21T06:32:13;4.53;;;2.60;;
69185;SDS011;56298;49.246;9.410;2022-08-21T06:34:39;5.45;;;2.50;;
69185;SDS011;56298;49.246;9.410;2022-08-21T06:37:06;5.30;;;2.22;;
69185;SDS011;56298;49.246;9.410;2022-08-21T06:39:31;4.53;;;2.43;;
69185;SDS011;56298;49.246;9.410;2022-08-21T06:41:57;5.25;;;2.47;;
69185;SDS011;56298;49.246;9.410;2022-08-21T06:44:22;4.87;;;2.87;;
69185;SDS011;56298;49.246;9.410;2022-08-21T06:46:48;6.07;;;2.60;;
69185;SDS011;56298;49.246;9.410;2022-08-21T06:49:13;5.73;;;2.70;;
69185;SDS011;56298;49.246;9.410;2022-08-21T06:51:38;5.63;;;3.13;;
69185;SDS011;56298;49.246;9.410;2022-08-21T06:54:04;5.22;;;3.00;;
69185;SDS011;56298;49.246;9.410;2022-08-21T06:56:29;5.30;;;3.20;;
69185;SDS011;56298;49.246;9.410;2022-08-21T06:58:55;6.07;;;3.10;;
69185;SDS011;56298;49.246;9.410;2022-08-21T07:01:21;4.90;;;2.70;;
69185;SDS011;56298;49.246;9.410;2022-08-21T07:03:49;6.95;;;2.97;;
69185;SDS011;56298;49.246;9.410;2022-08-21T07:06:14;5.50;;;3.20;;
69185;SDS011;56298;49.246;9.410;2022-08-21T07:08:40;7.93;;;3.28;;
69185;SDS011;56298;49.246;9.410;2022-08-21T07:11:07;7.00;;;3.60;;
69185;SDS011;56298;49.246;9.410;2022-08-21T07:13:37;6.38;;;3.35;;
69185;SDS011;56298;49.246;9.410;2022-08-21T07:16:02;7.10;;;3.30;;
69185;SDS011;56298;49.246;9.410;2022-08-21T07:18:28;7.03;;;3.53;;
69185;SDS011;56298;49.246;9.410;2022-08-21T07:20:53;7.43;;;3.63;;
69185;SDS011;56298;49.246;9.410;2022-08-21T07:23:24;7.25;;;3.65;;
69185;SDS011;56298;49.246;9.410;2022-08-21T07:25:52;6.80;;;3.30;;
69185;SDS011;56298;49.246;9.410;2022-08-21T07:28:17;7.33;;;4.27;;
69185;SDS011;56298;49.246;9.410;2022-08-21T07:30:43;7.50;;;4.10;;
69185;SDS011;56298;49.246;9.410;2022-08-21T07:33:08;8.52;;;4.32;;
69185;SDS011;56298;49.246;9.410;2022-08-21T07:35:33;7.90;;;3.97;;
69185;SDS011;56298;49.246;9.410;2022-08-21T07:37:59;7.47;;;3.80;;
69185;SDS011;56298;49.246;9.410;2022-08-21T07:40:24;7.53;;;3.73;;
69185;SDS011;56298;49.246;9.410;2022-08-21T07:42:50;8.75;;;4.35;;
69185;SDS011;56298;49.246;9.410;2022-08-21T07:45:17;9.05;;;4.00;;
69185;SDS011;56298;49.246;9.410;2022-08-21T07:47:48;9.55;;;4.32;;
69185;SDS011;56298;49.246;9.410;2022-08-21T07:50:14;8.33;;;4.27;;
69185;SDS011;56298;49.246;9.410;2022-08-21T07:52:40;8.13;;;3.87;;
69185;SDS011;56298;49.246;9.410;2022-08-21T07:55:07;7.60;;;3.92;;
69185;SDS011;56298;49.246;9.410;2022-08-21T07:57:33;7.50;;;3.70;;
69185;SDS011;56298;49.246;9.410;2022-08-21T07:59:58;9.43;;;4.27;;
69185;SDS011;56298;49.246;9.410;2022-08-21T08:02:27;7.20;;;4.00;;
69185;SDS011;56298;49.246;9.410;2022-08-21T08:04:54;8.25;;;4.03;;
69185;SDS011;56298;49.246;9.410;2022-08-21T08:07:19;7.47;;;3.83;;
69185;SDS011;56298;49.246;9.410;2022-08-21T08:09:45;8.88;;;3.97;;
69185;SDS011;56298;49.246;9.410;2022-08-21T08:12:10;9.57;;;4.87;;
69185;SDS011;56298;49.246;9.410;2022-08-21T08:14:36;9.23;;;4.35;;
69185;SDS011;56298;49.246;9.410;2022-08-21T08:17:01;10.53;;;4.00;;
69185;SDS011;56298;49.246;9.410;2022-08-21T08:19:27;8.53;;;4.20;;
69185;SDS011;56298;49.246;9.410;2022-08-21T08:21:56;7.70;;;4.40;;
69185;SDS011;56298;49.246;9.410;2022-08-21T08:24:21;8.23;;;4.07;;
69185;SDS011;56298;49.246;9.410;2022-08-21T08:26:46;9.03;;;4.73;;
69185;SDS011;56298;49.246;9.410;2022-08-21T08:29:12;9.40;;;4.80;;
69185;SDS011;56298;49.246;9.410;2022-08-21T08:31:37;8.60;;;4.45;;
69185;SDS011;56298;49.246;9.410;2022-08-21T08:34:03;10.37;;;4.70;;
69185;SDS011;56298;49.246;9.410;2022-08-21T08:36:35;8.70;;;4.87;;
69185;SDS011;56298;49.246;9.410;2022-08-21T08:39:02;9.73;;;5.35;;
69185;SDS011;56298;49.246;9.410;2022-08-21T08:41:29;8.43;;;5.25;;
69185;SDS011;56298;49.246;9.410;2022-08-21T08:43:57;8.65;;;6.00;;
69185;SDS011;56298;49.246;9.410;2022-08-21T08:49:09;9.32;;;5.75;;
69185;SDS011;56298;49.246;9.410;2022-08-21T08:51:47;11.50;;;6.00;;
69185;SDS011;56298;49.246;9.410;2022-08-21T08:54:21;8.07;;;5.30;;
69185;SDS011;56298;49.246;9.410;2022-08-21T08:56:57;8.27;;;5.87;;
69185;SDS011;56298;49.246;9.410;2022-08-21T08:59:25;8.75;;;5.90;;
69185;SDS011;56298;49.246;9.410;2022-08-21T09:01:58;8.77;;;5.55;;
69185;SDS011;56298;49.246;9.410;2022-08-21T09:04:24;8.70;;;5.53;;
69185;SDS011;56298;49.246;9.410;2022-08-21T09:06:53;8.38;;;5.55;;
69185;SDS011;56298;49.246;9.410;2022-08-21T09:09:30;10.10;;;6.20;;
69185;SDS011;56298;49.246;9.410;2022-08-21T09:12:09;9.85;;;5.30;;
69185;SDS011;56298;49.246;9.410;2022-08-21T09:14:56;8.55;;;5.57;;
69185;SDS011;56298;49.246;9.410;2022-08-21T09:17:36;9.27;;;5.97;;
69185;SDS011;56298;49.246;9.410;2022-08-21T09:26:07;8.73;;;5.50;;
69185;SDS011;56298;49.246;9.410;2022-08-21T09:28:37;8.70;;;5.45;;
69185;SDS011;56298;49.246;9.410;2022-08-21T09:31:03;8.67;;;5.47;;
69185;SDS011;56298;49.246;9.410;2022-08-21T09:33:31;10.05;;;5.47;;
69185;SDS011;56298;49.246;9.410;2022-08-21T09:35:57;9.93;;;5.50;;
69185;SDS011;56298;49.246;9.410;2022-08-21T09:38:30;8.90;;;5.28;;
69185;SDS011;56298;49.246;9.410;2022-08-21T09:41:05;8.80;;;4.45;;
69185;SDS011;56298;49.246;9.410;2022-08-21T09:43:37;8.13;;;4.72;;
69185;SDS011;56298;49.246;9.410;2022-08-21T09:46:10;10.70;;;4.72;;
69185;SDS011;56298;49.246;9.410;2022-08-21T09:48:48;9.48;;;5.20;;
69185;SDS011;56298;49.246;9.410;2022-08-21T09:51:16;8.52;;;5.05;;
69185;SDS011;56298;49.246;9.410;2022-08-21T09:53:46;9.35;;;4.38;;
69185;SDS011;56298;49.246;9.410;2022-08-21T09:56:17;8.32;;;4.15;;
69185;SDS011;56298;49.246;9.410;2022-08-21T09:59:25;7.10;;;3.40;;
69185;SDS011;56298;49.246;9.410;2022-08-21T10:01:55;8.20;;;4.10;;
69185;SDS011;56298;49.246;9.410;2022-08-21T10:04:24;7.28;;;3.50;;
69185;SDS011;56298;49.246;9.410;2022-08-21T10:06:53;8.65;;;3.60;;
69185;SDS011;56298;49.246;9.410;2022-08-21T10:09:19;8.68;;;4.05;;
69185;SDS011;56298;49.246;9.410;2022-08-21T10:21:01;7.75;;;3.30;;
69185;SDS011;56298;49.246;9.410;2022-08-21T10:26:04;7.53;;;3.00;;
69185;SDS011;56298;49.246;9.410;2022-08-21T10:42:31;8.10;;;2.85;;
69185;SDS011;56298;49.246;9.410;2022-08-21T10:45:09;8.45;;;3.10;;
69185;SDS011;56298;49.246;9.410;2022-08-21T10:47:47;6.97;;;2.90;;
69185;SDS011;56298;49.246;9.410;2022-08-21T10:50:19;6.03;;;2.90;;
69185;SDS011;56298;49.246;9.410;2022-08-21T10:53:10;7.10;;;2.60;;
69185;SDS011;56298;49.246;9.410;2022-08-21T10:55:56;7.35;;;2.90;;
69185;SDS011;56298;49.246;9.410;2022-08-21T11:01:46;7.67;;;3.10;;
69185;SDS011;56298;49.246;9.410;2022-08-21T11:04:09;9.88;;;3.00;;
69185;SDS011;56298;49.246;9.410;2022-08-21T11:06:38;10.23;;;3.13;;
69185;SDS011;56298;49.246;9.410;2022-08-21T11:09:11;9.48;;;2.88;;
69185;SDS011;56298;49.246;9.410;2022-08-21T11:17:12;7.93;;;3.10;;
69185;SDS011;56298;49.246;9.410;2022-08-21T11:19:48;7.27;;;2.90;;
69185;SDS011;56298;49.246;9.410;2022-08-21T11:27:50;6.77;;;3.20;;
69185;SDS011;56298;49.246;9.410;2022-08-21T11:30:19;6.70;;;2.60;;
69185;SDS011;56298;49.246;9.410;2022-08-21T11:35:50;8.73;;;2.90;;
69185;SDS011;56298;49.246;9.410;2022-08-21T11:38:34;8.70;;;2.92;;
69185;SDS011;56298;49.246;9.410;2022-08-21T11:41:13;8.10;;;3.08;;
69185;SDS011;56298;49.246;9.410;2022-08-21T11:43:48;6.90;;;2.87;;
69185;SDS011;56298;49.246;9.410;2022-08-21T11:54:34;7.85;;;3.03;;
69185;SDS011;56298;49.246;9.410;2022-08-21T11:57:07;7.07;;;2.90;;
69185;SDS011;56298;49.246;9.410;2022-08-21T12:02:39;8.25;;;3.20;;
69185;SDS011;56298;49.246;9.410;2022-08-21T12:05:11;6.77;;;2.90;;
69185;SDS011;56298;49.246;9.410;2022-08-21T12:07:59;7.20;;;3.30;;
69185;SDS011;56298;49.246;9.410;2022-08-21T12:10:31;7.18;;;2.92;;
69185;SDS011;56298;49.246;9.410;2022-08-21T12:13:05;7.47;;;3.17;;
69185;SDS011;56298;49.246;9.410;2022-08-21T12:15:33;6.40;;;3.00;;
69185;SDS011;56298;49.246;9.410;2022-08-21T12:20:34;7.90;;;2.97;;
69185;SDS011;56298;49.246;9.410;2022-08-21T12:25:37;7.20;;;3.05;;
69185;SDS011;56298;49.246;9.410;2022-08-21T12:28:10;7.90;;;3.03;;
69185;SDS011;56298;49.246;9.410;2022-08-21T12:30:39;6.55;;;3.00;;
69185;SDS011;56298;49.246;9.410;2022-08-21T12:36:05;6.83;;;2.80;;
69185;SDS011;56298;49.246;9.410;2022-08-21T12:38:54;7.00;;;3.22;;
69185;SDS011;56298;49.246;9.410;2022-08-21T12:41:26;7.90;;;3.13;;
69185;SDS011;56298;49.246;9.410;2022-08-21T12:43:59;6.27;;;2.73;;
69185;SDS011;56298;49.246;9.410;2022-08-21T12:47:12;8.60;;;3.00;;
69185;SDS011;56298;49.246;9.410;2022-08-21T12:49:54;5.93;;;2.80;;
69185;SDS011;56298;49.246;9.410;2022-08-21T12:52:41;7.03;;;2.85;;
69185;SDS011;56298;49.246;9.410;2022-08-21T12:55:26;6.85;;;2.53;;
69185;SDS011;56298;49.246;9.410;2022-08-21T12:57:55;7.05;;;2.88;;
69185;SDS011;56298;49.246;9.410;2022-08-21T13:00:21;6.43;;;2.80;;
69185;SDS011;56298;49.246;9.410;2022-08-21T13:02:49;5.93;;;2.83;;
69185;SDS011;56298;49.246;9.410;2022-08-21T13:05:19;7.47;;;2.90;;
69185;SDS011;56298;49.246;9.410;2022-08-21T13:07:52;6.95;;;2.70;;
69185;SDS011;56298;49.246;9.410;2022-08-21T13:10:25;6.07;;;2.77;;
69185;SDS011;56298;49.246;9.410;2022-08-21T13:12:54;7.07;;;3.00;;
69185;SDS011;56298;49.246;9.410;2022-08-21T13:15:32;8.13;;;2.87;;
69185;SDS011;56298;49.246;9.410;2022-08-21T13:17:59;6.38;;;2.80;;
69185;SDS011;56298;49.246;9.410;2022-08-21T13:20:30;7.23;;;2.80;;
69185;SDS011;56298;49.246;9.410;2022-08-21T13:22:56;7.70;;;2.90;;
69185;SDS011;56298;49.246;9.410;2022-08-21T13:25:25;7.32;;;2.88;;
69185;SDS011;56298;49.246;9.410;2022-08-21T13:28:09;6.53;;;2.90;;
69185;SDS011;56298;49.246;9.410;2022-08-21T13:33:17;6.28;;;2.80;;
69185;SDS011;56298;49.246;9.410;2022-08-21T13:36:04;6.95;;;3.00;;
69185;SDS011;56298;49.246;9.410;2022-08-21T13:38:35;8.85;;;3.15;;
69185;SDS011;56298;49.246;9.410;2022-08-21T13:41:03;6.88;;;2.90;;
69185;SDS011;56298;49.246;9.410;2022-08-21T13:43:35;6.88;;;2.80;;
69185;SDS011;56298;49.246;9.410;2022-08-21T13:46:02;7.05;;;3.05;;
69185;SDS011;56298;49.246;9.410;2022-08-21T13:48:34;6.60;;;2.70;;
69185;SDS011;56298;49.246;9.410;2022-08-21T13:51:00;7.17;;;2.70;;
69185;SDS011;56298;49.246;9.410;2022-08-21T13:53:31;8.73;;;3.00;;
69185;SDS011;56298;49.246;9.410;2022-08-21T13:55:58;6.80;;;2.80;;
69185;SDS011;56298;49.246;9.410;2022-08-21T13:58:25;6.00;;;2.78;;
69185;SDS011;56298;49.246;9.410;2022-08-21T14:00:52;5.97;;;2.80;;
69185;SDS011;56298;49.246;9.410;2022-08-21T14:03:27;6.95;;;2.70;;
69185;SDS011;56298;49.246;9.410;2022-08-21T14:06:11;7.50;;;2.75;;
69185;SDS011;56298;49.246;9.410;2022-08-21T14:08:39;7.25;;;2.65;;
69185;SDS011;56298;49.246;9.410;2022-08-21T14:11:09;8.37;;;2.80;;
69185;SDS011;56298;49.246;9.410;2022-08-21T14:16:22;6.95;;;2.78;;
69185;SDS011;56298;49.246;9.410;2022-08-21T14:21:25;6.88;;;2.67;;
69185;SDS011;56298;49.246;9.410;2022-08-21T14:26:49;6.53;;;2.53;;
69185;SDS011;56298;49.246;9.410;2022-08-21T14:29:43;5.57;;;2.50;;
69185;SDS011;56298;49.246;9.410;2022-08-21T14:32:13;6.72;;;2.40;;
69185;SDS011;56298;49.246;9.410;2022-08-21T14:34:44;7.35;;;2.55;;
69185;SDS011;56298;49.246;9.410;2022-08-21T14:37:09;6.47;;;2.67;;
69185;SDS011;56298;49.246;9.410;2022-08-21T14:39:34;6.37;;;2.53;;
69185;SDS011;56298;49.246;9.410;2022-08-21T14:42:00;6.70;;;2.73;;
69185;SDS011;56298;49.246;9.410;2022-08-21T14:44:26;6.43;;;2.50;;
69185;SDS011;56298;49.246;9.410;2022-08-21T14:46:51;5.72;;;2.58;;
69185;SDS011;56298;49.246;9.410;2022-08-21T14:49:18;7.22;;;2.67;;
69185;SDS011;56298;49.246;9.410;2022-08-21T14:51:43;6.87;;;2.67;;
69185;SDS011;56298;49.246;9.410;2022-08-21T14:54:08;6.23;;;2.23;;
69185;SDS011;56298;49.246;9.410;2022-08-21T14:56:34;5.70;;;2.50;;
69185;SDS011;56298;49.246;9.410;2022-08-21T14:59:02;6.72;;;2.50;;
69185;SDS011;56298;49.246;9.410;2022-08-21T15:01:29;5.53;;;2.35;;
69185;SDS011;56298;49.246;9.410;2022-08-21T15:03:58;7.80;;;2.80;;
69185;SDS011;56298;49.246;9.410;2022-08-21T15:06:23;6.53;;;2.70;;
69185;SDS011;56298;49.246;9.410;2022-08-21T15:08:48;6.20;;;2.50;;
69185;SDS011;56298;49.246;9.410;2022-08-21T15:11:16;6.80;;;2.60;;
69185;SDS011;56298;49.246;9.410;2022-08-21T15:13:43;5.75;;;2.58;;
69185;SDS011;56298;49.246;9.410;2022-08-21T15:16:08;6.47;;;2.73;;
69185;SDS011;56298;49.246;9.410;2022-08-21T15:18:35;5.40;;;2.45;;
69185;SDS011;56298;49.246;9.410;2022-08-21T15:21:00;7.07;;;2.40;;
69185;SDS011;56298;49.246;9.410;2022-08-21T15:23:26;6.00;;;2.80;;
69185;SDS011;56298;49.246;9.410;2022-08-21T15:25:51;5.57;;;2.50;;
69185;SDS011;56298;49.246;9.410;2022-08-21T15:28:17;7.30;;;2.83;;
69185;SDS011;56298;49.246;9.410;2022-08-21T15:30:43;7.53;;;2.30;;
69185;SDS011;56298;49.246;9.410;2022-08-21T15:33:10;6.47;;;2.50;;
69185;SDS011;56298;49.246;9.410;2022-08-21T15:35:35;7.30;;;3.03;;
69185;SDS011;56298;49.246;9.410;2022-08-21T15:38:01;7.15;;;2.70;;
69185;SDS011;56298;49.246;9.410;2022-08-21T15:40:26;6.30;;;2.60;;
69185;SDS011;56298;49.246;9.410;2022-08-21T15:42:52;5.77;;;2.70;;
69185;SDS011;56298;49.246;9.410;2022-08-21T15:45:22;5.70;;;2.40;;
69185;SDS011;56298;49.246;9.410;2022-08-21T15:47:49;5.85;;;2.30;;
69185;SDS011;56298;49.246;9.410;2022-08-21T15:50:15;5.70;;;2.40;;
69185;SDS011;56298;49.246;9.410;2022-08-21T15:52:41;5.43;;;2.42;;
69185;SDS011;56298;49.246;9.410;2022-08-21T15:55:07;6.23;;;2.60;;
69185;SDS011;56298;49.246;9.410;2022-08-21T15:57:34;5.35;;;2.30;;
69185;SDS011;56298;49.246;9.410;2022-08-21T16:00:00;5.68;;;2.65;;
69185;SDS011;56298;49.246;9.410;2022-08-21T16:02:36;6.80;;;2.53;;
69185;SDS011;56298;49.246;9.410;2022-08-21T16:05:02;6.72;;;2.45;;
69185;SDS011;56298;49.246;9.410;2022-08-21T16:07:28;5.43;;;2.35;;
69185;SDS011;56298;49.246;9.410;2022-08-21T16:09:53;5.60;;;2.40;;
69185;SDS011;56298;49.246;9.410;2022-08-21T16:12:26;6.43;;;2.50;;
69185;SDS011;56298;49.246;9.410;2022-08-21T16:14:56;5.10;;;2.30;;